Airfield :
LOGIN :

Register | Disclaimer

   EN    FR    IT 

 










Legend :    VFR   Marginal VFR   IFR   Intensive IFR   Very Intensive IFR
Visi :
Ceiling :
>= 8 km
>= 3000ft
5 to 8 km
1000 to 3000 ft
1500m to 5 km
500 to 1000 ft
800 to 1500m
200 to 500 ft
< 800m
< 200 ft
Symbols :   Thunderstorms  Fog  Heavy snow  Heavy precipitations  Wind > 20 kt
SIGMETs :     Misc.  Thunderstorms  Icing  Turbulence  Mountain Waves  Volcanic Ashes






- Airport Elevation : 370 ft


EBBE - Beauvechain AB

CURRENT METAR :
  • 211325Z 09004KT 9000 SCT100 BKN220 04/03 Q1005 BLU BLU TEMPO WHT

EXPIRED METARs :
  • 211255Z 08004KT 9000 SCT100 BKN220 04/02 Q1006 BLU BLU TEMPO WHT
  • 211225Z 09003KT 8000 FEW009 BKN220 03/02 Q1006 BLU BLU TEMPO WHT
  • 211155Z 08005KT 8000 FEW009 BKN220 03/02 Q1006 BLU BLU TEMPO WHT
  • 211152Z 08005KT 8000 FEW009 BKN220 03/01 Q1006 BLU BLU TEMPO WHT
  • 211125Z 10005KT 7000 SCT009 BKN220 02/01 Q1007 GRN GRN BECMG BLU
  • 211112Z 09004KT 7000 SCT007 SCT009 BKN220 02/00 Q1007 GRN GRN BECMG BLU
  • 211055Z 09004KT 6000 SCT007 BKN009 01/00 Q1007 GRN GRN TEMPO YLO

TAF TAF EBBE
Valid from the 21 at 13:00 until the 21 at 22:00 UTC


211141Z 2113/2122 11006KT 9999 FEW010 SCT080 BKN250
BECMG 2113/2115 15005KT



MET'MAP, your aeronautical weather chart ! - Copyright ORBIFLY December 2007 - Disclaimer

ORBIFLY MET'MAP TEAM :

Programming & Development : Alexandra Zaïnal
Concept & Development : Baudouin d'Aumeries
Co-Development & Prog : Marc-Olivier Méhu
Technical & hardware support : Manuel Goepfert

Contact : metmap@orbifly.com




SOURCES & CREDITS :

   NOAA